Time;durP1;ratioP1;P1;durP2;ratioP2;P2;SDS_P1;SDS_P2;PMS_P1;PMS_P2;Temp;Humidity;BMP_temperature;BMP_pressure;BME280_temperature;BME280_humidity;BME280_pressure;Samples;Min_cycle;Max_cycle;Signal;HPM_P1;HPM_P2
2023/01/12 00:02:11;;;;;;;12.55;2.50;;;8.70;99.90;;;;;;5024267;28;20033;-56
2023/01/12 00:04:37;;;;;;;16.90;3.15;;;8.80;99.90;;;;;;5024943;28;20715;-56
2023/01/12 00:07:07;;;;;;;17.63;2.75;;;8.90;99.90;;;;;;5024099;28;20035;-56
2023/01/12 00:09:33;;;;;;;16.85;2.90;;;8.80;99.90;;;;;;5025663;28;20470;-56
2023/01/12 00:12:01;;;;;;;12.95;2.45;;;8.70;99.90;;;;;;5024338;28;20072;-56
2023/01/12 00:14:26;;;;;;;17.10;2.72;;;8.80;99.90;;;;;;5020079;28;20669;-56
2023/01/12 00:16:52;;;;;;;14.88;2.40;;;9.00;99.90;;;;;;5013478;28;20061;-57
2023/01/12 00:19:21;;;;;;;10.80;2.80;;;8.90;99.90;;;;;;5025361;28;20052;-57
2023/01/12 00:24:18;;;;;;;14.45;2.60;;;8.90;99.90;;;;;;5020005;28;20354;-57
2023/01/12 00:26:47;;;;;;;10.90;2.20;;;8.90;99.90;;;;;;5030528;28;20438;-55
2023/01/12 00:29:14;;;;;;;13.50;3.15;;;8.90;99.90;;;;;;5023706;28;20080;-56
2023/01/12 00:31:39;;;;;;;11.52;2.40;;;8.90;99.90;;;;;;5021054;28;20030;-56
2023/01/12 00:34:05;;;;;;;12.13;2.53;;;8.80;99.90;;;;;;5022979;28;20044;-55
2023/01/12 00:36:30;;;;;;;9.00;2.35;;;8.80;99.90;;;;;;5022496;28;20033;-57
2023/01/12 00:38:56;;;;;;;13.93;2.55;;;8.90;99.90;;;;;;5024720;28;20030;-56
2023/01/12 00:46:50;;;;;;;13.20;3.05;;;9.00;99.90;;;;;;5022527;28;20049;-53
2023/01/12 00:49:16;;;;;;;14.20;3.10;;;9.00;99.90;;;;;;5021786;28;20500;-55
2023/01/12 00:51:41;;;;;;;15.85;3.08;;;9.00;99.90;;;;;;5024428;28;20033;-56
2023/01/12 00:54:07;;;;;;;12.75;3.13;;;9.10;99.90;;;;;;5018517;28;20044;-56
2023/01/12 00:56:34;;;;;;;14.25;3.25;;;9.00;99.90;;;;;;5022419;28;20038;-56
2023/01/12 00:59:00;;;;;;;19.15;3.45;;;9.10;99.90;;;;;;5020008;28;20144;-55
2023/01/12 01:01:25;;;;;;;15.15;3.00;;;9.00;99.90;;;;;;5022633;28;20129;-56
2023/01/12 01:03:51;;;;;;;15.45;3.15;;;9.00;99.90;;;;;;5022855;28;20041;-55
2023/01/12 01:06:16;;;;;;;14.70;2.63;;;9.00;99.90;;;;;;5021796;28;20053;-55
2023/01/12 01:08:42;;;;;;;19.70;3.60;;;9.10;99.90;;;;;;5023823;28;20033;-55
2023/01/12 01:11:11;;;;;;;13.20;2.80;;;9.10;99.90;;;;;;5023955;28;20033;-57
2023/01/12 01:13:42;;;;;;;11.55;3.00;;;9.20;99.90;;;;;;5023849;28;20036;-56
2023/01/12 01:16:11;;;;;;;21.15;4.53;;;9.20;99.90;;;;;;5023525;28;20037;-56
2023/01/12 01:18:40;;;;;;;13.90;3.03;;;9.20;99.90;;;;;;5018975;28;20034;-56
2023/01/12 01:21:07;;;;;;;19.20;3.13;;;9.20;99.90;;;;;;5022031;28;20041;-56
2023/01/12 01:23:34;;;;;;;20.88;3.13;;;9.30;99.90;;;;;;5022973;28;20252;-56
2023/01/12 01:26:05;;;;;;;17.38;3.45;;;9.30;99.90;;;;;;5023051;28;20679;-56
2023/01/12 01:28:31;;;;;;;17.70;2.88;;;9.20;99.90;;;;;;5014796;28;20041;-56
2023/01/12 01:31:04;;;;;;;17.58;3.15;;;9.20;99.90;;;;;;5021605;28;20485;-55
2023/01/12 01:33:30;;;;;;;22.60;3.63;;;9.20;99.90;;;;;;5017481;28;20128;-57
2023/01/12 01:35:56;;;;;;;18.17;2.75;;;9.30;99.90;;;;;;5030763;28;20528;-56
2023/01/12 01:38:22;;;;;;;17.40;3.78;;;9.30;99.90;;;;;;5016685;28;20042;-55
2023/01/12 01:40:48;;;;;;;16.67;3.65;;;9.30;99.90;;;;;;5010005;28;20038;-56
2023/01/12 01:43:15;;;;;;;19.70;3.10;;;9.20;99.90;;;;;;4993874;28;20045;-56
2023/01/12 01:45:44;;;;;;;14.93;2.75;;;9.30;99.90;;;;;;5009560;28;20038;-56
2023/01/12 01:48:13;;;;;;;19.08;3.45;;;9.30;99.90;;;;;;5011453;28;20037;-57
2023/01/12 01:50:42;;;;;;;21.60;4.00;;;9.30;99.90;;;;;;5017284;28;20049;-55
2023/01/12 01:53:13;;;;;;;18.92;3.28;;;9.20;99.90;;;;;;5018260;28;20045;-55
2023/01/12 01:55:48;;;;;;;22.85;3.95;;;9.20;99.90;;;;;;5022103;28;20120;-56
2023/01/12 01:58:19;;;;;;;16.10;3.60;;;9.20;99.90;;;;;;5027302;28;20025;-55
2023/01/12 02:00:45;;;;;;;17.75;3.50;;;9.20;99.90;;;;;;5027309;28;20058;-56
2023/01/12 02:03:13;;;;;;;17.52;3.65;;;9.20;99.90;;;;;;5026130;28;20029;-56
2023/01/12 02:05:44;;;;;;;23.02;3.90;;;9.20;99.90;;;;;;5030242;28;20033;-56
2023/01/12 02:08:53;;;;;;;24.92;3.65;;;9.20;99.90;;;;;;5023672;28;20033;-56
2023/01/12 02:17:09;;;;;;;18.27;3.10;;;9.40;99.90;;;;;;5027401;28;20152;-57
2023/01/12 02:20:03;;;;;;;14.55;2.78;;;9.30;99.90;;;;;;4981981;28;20025;-56
2023/01/12 02:22:53;;;;;;;17.27;3.47;;;9.30;99.90;;;;;;5021521;28;20397;-56
2023/01/12 02:25:57;;;;;;;20.33;3.70;;;9.30;99.90;;;;;;5024162;28;20114;-56
2023/01/12 02:28:41;;;;;;;19.90;3.45;;;9.30;99.90;;;;;;4994123;28;20057;-56
2023/01/12 02:31:27;;;;;;;19.25;3.85;;;9.30;99.90;;;;;;5025621;28;20158;-57
2023/01/12 02:34:15;;;;;;;20.10;3.72;;;9.30;99.90;;;;;;5024601;28;20545;-55
2023/01/12 02:36:51;;;;;;;15.10;2.92;;;9.40;99.90;;;;;;5027348;28;20496;-56
2023/01/12 02:39:25;;;;;;;23.63;3.67;;;9.40;99.90;;;;;;5024988;28;20103;-56
2023/01/12 02:45:28;;;;;;;21.10;3.55;;;9.30;99.90;;;;;;5015081;28;20039;-56
2023/01/12 02:48:10;;;;;;;23.98;3.88;;;9.20;99.90;;;;;;4964344;28;20038;-57
2023/01/12 02:50:58;;;;;;;24.38;3.65;;;9.20;99.90;;;;;;5010699;28;20575;-56
2023/01/12 02:53:28;;;;;;;19.98;3.05;;;9.10;99.90;;;;;;5020826;28;20034;-56
2023/01/12 02:55:55;;;;;;;21.75;3.17;;;9.10;99.90;;;;;;5018974;28;20100;-56
2023/01/12 02:58:23;;;;;;;20.30;3.17;;;9.20;99.90;;;;;;5022114;28;20068;-55
2023/01/12 03:00:53;;;;;;;23.30;4.00;;;9.30;99.90;;;;;;5014131;28;20465;-55
2023/01/12 03:03:19;;;;;;;20.80;3.70;;;9.10;99.90;;;;;;5005880;28;20041;-55
2023/01/12 03:05:46;;;;;;;24.98;3.85;;;9.10;99.90;;;;;;5021275;28;20045;-56
2023/01/12 03:08:16;;;;;;;13.23;3.13;;;9.10;99.90;;;;;;5005918;28;20087;-55
2023/01/12 03:10:54;;;;;;;21.33;4.28;;;9.10;99.90;;;;;;5006463;28;20116;-56
2023/01/12 03:13:22;;;;;;;18.67;3.47;;;9.10;99.90;;;;;;5026179;28;20044;-56
2023/01/12 03:15:50;;;;;;;19.58;3.78;;;9.10;99.90;;;;;;5027260;28;20041;-56
2023/01/12 03:18:40;;;;;;;14.77;2.97;;;9.10;99.90;;;;;;5028840;28;20029;-55
2023/01/12 03:21:14;;;;;;;15.55;3.05;;;9.00;99.90;;;;;;5032718;28;20489;-56
2023/01/12 03:23:48;;;;;;;17.48;3.40;;;9.10;99.90;;;;;;5023584;28;20497;-56
2023/01/12 03:26:16;;;;;;;19.23;3.30;;;9.00;99.90;;;;;;5027022;28;20558;-55
2023/01/12 03:28:47;;;;;;;16.80;2.90;;;9.10;99.90;;;;;;5031943;28;20065;-56
2023/01/12 03:31:14;;;;;;;14.40;2.55;;;9.20;99.90;;;;;;5023359;28;20037;-55
2023/01/12 03:33:41;;;;;;;22.48;3.47;;;9.10;99.90;;;;;;5025753;28;20052;-56
2023/01/12 03:36:40;;;;;;;13.90;2.90;;;9.20;99.90;;;;;;5028112;28;20037;-56
2023/01/12 03:39:24;;;;;;;14.55;2.95;;;9.10;99.90;;;;;;5022214;28;20136;-56
2023/01/12 03:41:59;;;;;;;18.90;2.92;;;9.10;99.90;;;;;;5026747;28;20100;-56
2023/01/12 03:44:36;;;;;;;17.98;3.63;;;9.10;99.90;;;;;;5026753;28;20477;-56
2023/01/12 03:47:08;;;;;;;14.15;2.75;;;9.10;99.90;;;;;;5024673;28;20045;-56
2023/01/12 03:49:41;;;;;;;19.80;3.15;;;9.10;99.90;;;;;;5028296;28;20064;-55
2023/01/12 03:52:09;;;;;;;14.07;2.60;;;9.10;99.90;;;;;;5027106;28;20436;-56
2023/01/12 03:54:37;;;;;;;17.05;3.75;;;9.10;99.90;;;;;;5028075;28;20532;-55
2023/01/12 03:57:04;;;;;;;21.75;3.90;;;9.10;99.90;;;;;;5022903;28;24226;-55
2023/01/12 03:59:29;;;;;;;16.00;2.75;;;9.20;99.90;;;;;;5018006;28;20092;-56
2023/01/12 04:01:55;;;;;;;20.33;3.60;;;9.20;99.90;;;;;;5018996;28;20452;-55
2023/01/12 04:04:21;;;;;;;23.88;3.47;;;9.10;99.90;;;;;;5023585;28;21968;-55
2023/01/12 04:06:47;;;;;;;13.18;2.88;;;9.20;99.90;;;;;;5025724;28;20025;-56
2023/01/12 04:09:13;;;;;;;12.93;2.55;;;9.10;99.90;;;;;;5025599;28;20036;-56
2023/01/12 04:14:22;;;;;;;12.65;2.30;;;9.10;99.90;;;;;;5025147;28;20107;-56
2023/01/12 04:16:48;;;;;;;13.68;2.90;;;9.10;99.90;;;;;;5030342;28;20060;-56
2023/01/12 04:19:13;;;;;;;15.73;3.00;;;9.10;99.90;;;;;;5021893;28;20103;-56
2023/01/12 04:24:23;;;;;;;11.30;2.40;;;9.20;99.90;;;;;;5024790;28;20053;-55
2023/01/12 04:26:49;;;;;;;16.27;2.67;;;9.20;99.90;;;;;;5024507;28;20034;-55
2023/01/12 04:29:14;;;;;;;14.38;2.60;;;9.20;99.90;;;;;;5024389;28;20690;-56
2023/01/12 04:31:40;;;;;;;14.85;2.67;;;9.20;99.90;;;;;;5025518;28;20665;-56
2023/01/12 04:34:05;;;;;;;13.45;2.40;;;9.20;99.90;;;;;;5024515;28;20423;-57
2023/01/12 04:36:31;;;;;;;11.27;3.13;;;9.30;99.90;;;;;;5021599;28;20580;-56
2023/01/12 04:38:56;;;;;;;17.40;2.95;;;9.30;99.90;;;;;;5022478;28;20037;-56
2023/01/12 04:41:22;;;;;;;15.27;2.92;;;9.20;99.90;;;;;;5023047;28;20045;-56
2023/01/12 04:43:47;;;;;;;12.48;2.45;;;9.20;99.90;;;;;;5024392;28;20125;-56
2023/01/12 04:46:13;;;;;;;12.95;2.15;;;9.00;99.90;;;;;;5024407;28;20065;-57
2023/01/12 04:48:39;;;;;;;14.23;2.55;;;9.00;99.90;;;;;;5024556;28;20037;-56
2023/01/12 04:51:05;;;;;;;14.40;2.17;;;9.00;99.90;;;;;;5024400;28;20055;-56
2023/01/12 04:53:30;;;;;;;11.23;2.15;;;9.00;99.90;;;;;;5029856;28;20033;-56
2023/01/12 04:55:56;;;;;;;13.70;2.47;;;9.10;99.90;;;;;;5023651;28;20215;-54
2023/01/12 04:58:22;;;;;;;12.50;2.63;;;9.00;99.90;;;;;;5021131;28;20385;-55
2023/01/12 05:00:48;;;;;;;12.05;2.67;;;9.00;99.90;;;;;;5023993;28;20451;-56
2023/01/12 05:03:15;;;;;;;15.93;2.92;;;9.00;99.90;;;;;;5024093;28;20944;-56
2023/01/12 05:05:40;;;;;;;15.10;2.47;;;9.00;99.90;;;;;;5025523;28;20127;-55
2023/01/12 05:10:55;;;;;;;9.32;2.00;;;9.00;99.90;;;;;;5020824;28;20681;-56
2023/01/12 05:13:22;;;;;;;11.23;1.98;;;9.00;99.90;;;;;;5022111;28;20065;-55
2023/01/12 05:15:47;;;;;;;15.65;2.60;;;9.00;99.90;;;;;;5022806;28;20105;-56
2023/01/12 05:18:13;;;;;;;11.98;2.60;;;9.00;99.90;;;;;;5023655;28;20129;-55
2023/01/12 05:20:38;;;;;;;13.55;2.28;;;9.00;99.90;;;;;;5024201;28;20050;-54
2023/01/12 05:23:04;;;;;;;9.57;2.05;;;8.90;99.90;;;;;;5024195;28;20040;-56
2023/01/12 05:25:31;;;;;;;13.50;2.00;;;8.90;99.90;;;;;;5024811;28;20484;-55
2023/01/12 05:27:57;;;;;;;8.73;2.00;;;8.90;99.90;;;;;;5025599;28;20124;-55
2023/01/12 05:30:24;;;;;;;9.15;2.10;;;8.90;99.90;;;;;;5026991;28;20125;-56
2023/01/12 05:32:49;;;;;;;11.25;2.40;;;8.90;99.90;;;;;;5028059;28;20068;-55
2023/01/12 05:35:15;;;;;;;12.27;1.92;;;8.90;99.90;;;;;;5027058;28;20072;-55
2023/01/12 05:37:41;;;;;;;13.82;2.22;;;8.80;99.90;;;;;;5027663;28;20392;-56
2023/01/12 05:40:07;;;;;;;16.92;2.40;;;8.80;99.90;;;;;;5027169;28;20059;-55
2023/01/12 05:45:17;;;;;;;7.50;1.80;;;9.00;99.90;;;;;;5026242;28;20088;-55
2023/01/12 05:47:42;;;;;;;10.35;2.20;;;8.90;99.90;;;;;;5027427;28;20524;-55
2023/01/12 05:50:08;;;;;;;13.35;2.15;;;8.80;99.90;;;;;;5028695;28;20060;-57
2023/01/12 05:52:34;;;;;;;11.52;2.08;;;8.80;99.90;;;;;;5024598;28;20037;-56
2023/01/12 05:55:00;;;;;;;16.00;2.45;;;8.80;99.90;;;;;;5027844;28;20650;-55
2023/01/12 05:57:27;;;;;;;11.43;2.13;;;8.90;99.90;;;;;;5027082;28;20061;-55
2023/01/12 05:59:53;;;;;;;13.43;2.13;;;8.80;99.90;;;;;;5010450;28;20512;-55
2023/01/12 06:02:20;;;;;;;12.13;2.10;;;8.80;99.90;;;;;;5022677;28;20025;-55
2023/01/12 06:04:45;;;;;;;9.18;2.30;;;8.80;99.90;;;;;;5026045;28;20041;-57
2023/01/12 06:07:13;;;;;;;10.25;1.95;;;8.90;99.90;;;;;;5026946;28;20033;-56
2023/01/12 06:09:38;;;;;;;11.10;2.40;;;8.80;99.90;;;;;;5028171;28;20029;-55
2023/01/12 06:14:49;;;;;;;15.13;2.45;;;8.80;99.90;;;;;;5026956;28;20048;-55
2023/01/12 06:17:14;;;;;;;12.05;2.03;;;9.00;99.90;;;;;;5027370;28;20034;-56
2023/01/12 06:19:40;;;;;;;9.95;2.10;;;8.90;99.90;;;;;;5024489;28;20119;-56
2023/01/12 06:22:07;;;;;;;10.27;2.28;;;8.80;99.90;;;;;;5026178;28;20156;-55
2023/01/12 06:24:33;;;;;;;13.45;1.98;;;8.80;99.90;;;;;;5027386;28;20033;-56
2023/01/12 06:26:59;;;;;;;10.90;2.08;;;8.90;99.90;;;;;;5026055;28;20034;-56
2023/01/12 06:29:24;;;;;;;12.30;2.50;;;8.90;99.90;;;;;;5026312;28;20033;-54
2023/01/12 06:31:50;;;;;;;10.60;2.20;;;9.00;99.90;;;;;;5027607;28;20104;-54
2023/01/12 06:34:16;;;;;;;12.98;3.08;;;9.00;99.90;;;;;;5022109;28;20441;-56
2023/01/12 06:36:41;;;;;;;13.88;2.20;;;9.00;99.90;;;;;;5010697;28;20033;-56
2023/01/12 06:39:07;;;;;;;8.10;1.83;;;8.90;99.90;;;;;;5023097;28;20091;-55
2023/01/12 06:44:18;;;;;;;7.32;2.05;;;9.00;99.90;;;;;;5027299;28;20033;-56
2023/01/12 06:46:44;;;;;;;15.25;2.50;;;9.00;99.90;;;;;;5027312;28;20033;-55
2023/01/12 06:49:10;;;;;;;13.48;2.40;;;9.00;99.90;;;;;;5025057;28;20488;-57
2023/01/12 06:51:36;;;;;;;14.65;2.55;;;9.10;99.90;;;;;;5030881;28;20035;-55
2023/01/12 06:54:02;;;;;;;11.00;2.38;;;9.00;99.90;;;;;;5026267;28;20037;-55
2023/01/12 06:56:27;;;;;;;12.82;2.85;;;9.00;99.90;;;;;;5026243;28;20034;-56
2023/01/12 06:58:53;;;;;;;12.85;2.53;;;9.00;99.90;;;;;;5024003;28;20393;-57
2023/01/12 07:01:19;;;;;;;12.35;2.28;;;9.10;99.90;;;;;;5023456;28;20129;-55
2023/01/12 07:03:45;;;;;;;14.60;2.35;;;;;;;;;;5022101;28;20473;-56
2023/01/12 07:06:11;;;;;;;12.73;2.42;;;9.10;99.90;;;;;;5026003;28;20435;-55
2023/01/12 07:08:37;;;;;;;14.50;2.33;;;9.20;99.90;;;;;;5026068;28;20192;-57
2023/01/12 07:11:06;;;;;;;15.00;2.60;;;9.30;99.90;;;;;;5024313;28;20037;-57
2023/01/12 07:13:32;;;;;;;12.82;1.98;;;9.30;99.90;;;;;;5026925;28;20037;-56
2023/01/12 07:15:58;;;;;;;16.80;2.67;;;9.30;99.90;;;;;;5026345;28;20473;-57
2023/01/12 07:18:25;;;;;;;8.70;2.13;;;9.40;99.90;;;;;;5025741;28;20033;-56
2023/01/12 07:20:52;;;;;;;11.32;2.30;;;9.30;99.90;;;;;;5024620;28;20485;-57
2023/01/12 07:23:17;;;;;;;8.35;2.50;;;9.40;99.90;;;;;;5025265;28;20064;-56
2023/01/12 07:25:43;;;;;;;16.17;2.75;;;9.30;99.90;;;;;;5022961;28;20714;-56
2023/01/12 07:28:10;;;;;;;11.07;1.98;;;9.50;99.90;;;;;;5022966;28;20037;-57
2023/01/12 07:30:35;;;;;;;8.23;1.65;;;9.50;99.90;;;;;;5027337;28;20075;-56
2023/01/12 07:33:09;;;;;;;12.38;2.25;;;9.40;99.90;;;;;;5028881;28;20145;-56
2023/01/12 07:35:34;;;;;;;8.18;2.00;;;9.50;99.90;;;;;;5009347;28;20038;-56
2023/01/12 07:38:00;;;;;;;7.97;2.00;;;9.50;99.90;;;;;;5009076;28;20743;-56
2023/01/12 07:40:25;;;;;;;11.90;2.10;;;9.40;99.90;;;;;;5013345;28;20060;-57
2023/01/12 07:43:02;;;;;;;8.57;1.60;;;9.40;99.90;;;;;;5019865;28;20064;-56
2023/01/12 07:45:28;;;;;;;10.85;1.73;;;9.50;99.90;;;;;;5024146;28;20042;-56
2023/01/12 07:47:55;;;;;;;6.15;1.40;;;;;;;;;;5023566;28;20179;-57
2023/01/12 07:50:21;;;;;;;9.82;1.70;;;9.60;99.90;;;;;;5023029;28;20099;-55
2023/01/12 07:52:47;;;;;;;11.32;1.85;;;9.60;99.90;;;;;;5025460;28;20044;-56
2023/01/12 07:55:15;;;;;;;11.32;2.33;;;9.60;99.90;;;;;;5024383;28;20033;-56
2023/01/12 07:57:41;;;;;;;11.20;1.77;;;9.70;99.90;;;;;;5024159;28;20032;-57
2023/01/12 08:00:07;;;;;;;8.90;1.60;;;9.70;99.90;;;;;;5022879;28;20068;-55
2023/01/12 08:02:33;;;;;;;8.43;1.90;;;9.70;99.90;;;;;;5023492;28;20029;-56
2023/01/12 08:04:58;;;;;;;9.32;1.73;;;9.70;99.90;;;;;;5020609;28;20392;-57
2023/01/12 08:07:25;;;;;;;6.50;1.95;;;9.70;99.90;;;;;;5022850;28;20029;-56
2023/01/12 08:09:51;;;;;;;10.48;1.73;;;9.70;99.90;;;;;;5019508;28;20136;-56
2023/01/12 08:12:16;;;;;;;7.18;1.70;;;9.70;99.90;;;;;;5023885;28;20029;-56
2023/01/12 08:14:42;;;;;;;9.48;1.95;;;9.80;99.90;;;;;;5023868;28;20068;-55
2023/01/12 08:17:20;;;;;;;8.63;1.85;;;9.80;99.90;;;;;;5022777;28;20240;-55
2023/01/12 08:19:54;;;;;;;7.72;1.65;;;9.80;99.90;;;;;;5023699;28;20094;-55
2023/01/12 08:22:24;;;;;;;4.60;1.55;;;9.80;99.90;;;;;;5020128;28;20037;-57
2023/01/12 08:24:56;;;;;;;7.10;1.75;;;9.80;99.90;;;;;;5024868;28;20037;-55
2023/01/12 08:27:25;;;;;;;5.05;1.23;;;9.70;99.90;;;;;;5021994;28;20553;-57
2023/01/12 08:29:55;;;;;;;5.97;1.70;;;9.80;99.90;;;;;;5023468;28;20029;-56
2023/01/12 08:32:20;;;;;;;4.60;1.40;;;9.80;99.90;;;;;;5023860;28;20072;-55
2023/01/12 08:34:51;;;;;;;5.55;1.73;;;9.90;99.90;;;;;;5023948;28;20064;-55
2023/01/12 08:37:20;;;;;;;8.65;1.58;;;9.80;99.90;;;;;;5023680;28;20116;-56
2023/01/12 08:39:47;;;;;;;5.68;1.30;;;9.90;99.90;;;;;;5024107;28;20449;-56
2023/01/12 08:42:12;;;;;;;5.57;1.35;;;9.90;99.90;;;;;;5023668;28;20041;-56
2023/01/12 08:44:38;;;;;;;6.60;1.38;;;9.80;99.90;;;;;;5024295;28;20103;-56
2023/01/12 08:47:13;;;;;;;5.30;1.30;;;9.90;99.90;;;;;;5023527;28;20017;-56
2023/01/12 08:49:38;;;;;;;5.85;1.38;;;9.90;99.90;;;;;;5021337;28;20059;-56
2023/01/12 08:52:04;;;;;;;5.88;1.20;;;9.90;99.90;;;;;;5023889;28;20025;-56
2023/01/12 08:54:29;;;;;;;5.93;1.23;;;9.90;99.90;;;;;;5024963;28;20030;-56
2023/01/12 08:56:55;;;;;;;8.65;1.20;;;9.90;99.90;;;;;;5023235;28;20095;-57
2023/01/12 08:59:21;;;;;;;3.90;1.27;;;9.90;99.90;;;;;;5022783;28;20037;-56
2023/01/12 09:01:46;;;;;;;4.30;1.17;;;9.90;99.90;;;;;;5023990;28;20154;-57
2023/01/12 09:04:12;;;;;;;6.13;1.27;;;9.90;99.90;;;;;;5022851;28;20029;-56
2023/01/12 09:06:40;;;;;;;7.55;1.38;;;10.00;99.90;;;;;;5024508;28;20040;-57
2023/01/12 09:09:09;;;;;;;5.47;1.45;;;10.10;99.90;;;;;;5023623;28;20793;-57
2023/01/12 09:11:36;;;;;;;6.80;1.63;;;10.10;99.90;;;;;;5021579;28;20638;-57
2023/01/12 09:14:02;;;;;;;6.47;1.52;;;10.00;99.90;;;;;;5008214;28;20670;-57
2023/01/12 09:16:29;;;;;;;5.22;1.05;;;10.10;99.90;;;;;;5023985;28;20160;-56
2023/01/12 09:18:55;;;;;;;3.78;1.00;;;10.00;99.90;;;;;;5022624;28;20030;-56
2023/01/12 09:21:22;;;;;;;3.35;1.10;;;10.10;99.90;;;;;;5022213;28;20083;-57
2023/01/12 09:23:48;;;;;;;5.50;1.40;;;10.10;99.90;;;;;;5024081;28;20511;-57
2023/01/12 09:26:30;;;;;;;2.80;1.00;;;10.10;99.90;;;;;;5023515;28;20033;-57
2023/01/12 09:28:57;;;;;;;6.28;1.30;;;10.20;99.90;;;;;;5023379;28;20118;-56
2023/01/12 09:31:22;;;;;;;5.72;1.13;;;10.20;99.90;;;;;;5022959;28;20286;-56
2023/01/12 09:33:48;;;;;;;3.28;1.02;;;10.20;99.90;;;;;;5022174;28;20120;-56
2023/01/12 09:36:17;;;;;;;6.72;1.50;;;10.30;99.90;;;;;;5023672;28;20057;-57
2023/01/12 09:38:44;;;;;;;6.32;1.15;;;10.30;99.90;;;;;;5024187;28;20113;-57
2023/01/12 09:46:57;;;;;;;5.70;1.42;;;10.30;99.90;;;;;;5023680;28;20030;-57
2023/01/12 09:46:57;;;;;;;9.38;1.48;;;10.20;99.90;;;;;;5022633;28;20416;-57
2023/01/12 09:49:46;;;;;;;4.05;1.30;;;10.30;99.90;;;;;;5006360;28;20052;-57
2023/01/12 09:52:21;;;;;;;6.15;1.17;;;10.30;99.90;;;;;;5023403;28;20481;-56
2023/01/12 09:54:50;;;;;;;3.53;1.13;;;10.30;99.90;;;;;;5021659;28;20080;-56
2023/01/12 09:57:53;;;;;;;7.72;1.30;;;10.40;99.90;;;;;;5022706;28;20076;-57
2023/01/12 10:00:19;;;;;;;8.15;1.40;;;10.40;99.90;;;;;;5020291;28;20619;-57
2023/01/12 10:03:05;;;;;;;5.25;1.73;;;10.40;99.90;;;;;;5023515;28;20036;-56
2023/01/12 10:05:42;;;;;;;4.28;1.38;;;10.50;99.90;;;;;;5021422;28;20550;-57
2023/01/12 10:08:37;;;;;;;4.57;1.17;;;10.40;99.90;;;;;;5023008;28;20485;-57
2023/01/12 10:11:21;;;;;;;6.05;1.25;;;10.40;99.90;;;;;;5008860;28;20543;-57
2023/01/12 10:13:54;;;;;;;6.60;1.33;;;10.50;99.90;;;;;;5023958;28;20029;-56
2023/01/12 10:16:33;;;;;;;5.90;1.63;;;10.50;99.90;;;;;;5026004;28;20120;-57
2023/01/12 10:19:06;;;;;;;7.22;1.20;;;10.60;99.90;;;;;;5025682;28;20037;-56
2023/01/12 10:21:31;;;;;;;6.10;1.40;;;10.60;99.90;;;;;;5018516;28;20395;-57
2023/01/12 10:23:57;;;;;;;5.63;1.20;;;10.60;99.90;;;;;;5018999;28;20272;-57
2023/01/12 10:26:27;;;;;;;4.63;1.70;;;10.60;99.90;;;;;;5009953;28;20060;-56
2023/01/12 10:28:55;;;;;;;7.47;1.42;;;10.60;99.90;;;;;;5012217;28;20088;-57
2023/01/12 10:31:24;;;;;;;7.78;1.63;;;10.60;99.90;;;;;;5028875;28;20844;-57
2023/01/12 10:34:08;;;;;;;4.60;1.23;;;10.70;99.90;;;;;;5013219;28;20071;-57
2023/01/12 10:36:40;;;;;;;4.18;1.20;;;10.70;99.90;;;;;;5010288;28;20057;-57
2023/01/12 10:39:28;;;;;;;8.05;1.38;;;10.70;99.90;;;;;;5025086;28;20590;-56
2023/01/12 10:43:17;;;;;;;7.40;1.55;;;10.60;99.90;;;;;;5021740;28;20033;-56
2023/01/12 10:45:12;;;;;;;7.90;1.48;;;10.70;99.90;;;;;;5024762;28;20048;-57
2023/01/12 10:47:38;;;;;;;5.30;1.83;;;10.60;99.90;;;;;;5026080;28;20033;-55
2023/01/12 10:50:30;;;;;;;6.10;1.50;;;10.60;99.90;;;;;;5025011;28;20040;-57
2023/01/12 10:53:04;;;;;;;6.03;1.63;;;10.60;99.90;;;;;;5026312;28;20431;-57
2023/01/12 10:55:33;;;;;;;5.20;1.65;;;10.60;99.90;;;;;;5023724;28;20420;-57
2023/01/12 10:57:59;;;;;;;5.97;1.60;;;10.70;99.90;;;;;;5024103;28;20390;-57
2023/01/12 11:00:27;;;;;;;10.05;1.42;;;10.70;99.90;;;;;;5016972;28;20119;-57
2023/01/12 11:02:53;;;;;;;4.95;1.00;;;10.70;99.90;;;;;;5030257;28;20116;-57
2023/01/12 11:05:35;;;;;;;3.95;1.10;;;10.80;99.90;;;;;;5024824;28;20125;-57
2023/01/12 11:08:01;;;;;;;9.07;1.60;;;10.80;99.90;;;;;;5025709;28;20036;-57
2023/01/12 11:10:30;;;;;;;4.75;1.20;;;10.80;99.90;;;;;;5025010;28;20059;-55
2023/01/12 11:13:02;;;;;;;7.80;1.30;;;10.80;99.90;;;;;;5022042;28;20408;-56
2023/01/12 11:15:29;;;;;;;4.13;1.40;;;10.80;99.90;;;;;;5017791;28;20040;-57
2023/01/12 11:18:36;;;;;;;4.07;1.13;;;10.80;99.90;;;;;;5000363;28;20161;-56
2023/01/12 11:21:09;;;;;;;3.78;1.13;;;10.90;99.90;;;;;;5019205;28;20136;-57
2023/01/12 11:23:37;;;;;;;3.67;0.85;;;10.80;99.90;;;;;;5024733;28;20614;-57
2023/01/12 11:26:15;;;;;;;4.10;0.90;;;10.90;99.90;;;;;;5024068;28;20034;-57
2023/01/12 11:28:45;;;;;;;3.28;1.05;;;10.80;99.90;;;;;;5024781;28;20568;-56
2023/01/12 11:31:20;;;;;;;5.80;1.05;;;10.90;99.90;;;;;;5024266;28;20038;-55
2023/01/12 11:34:00;;;;;;;3.83;0.95;;;10.80;99.90;;;;;;5025869;28;20366;-56
2023/01/12 11:36:30;;;;;;;3.75;1.10;;;10.90;99.90;;;;;;5021522;28;20087;-56
2023/01/12 11:39:24;;;;;;;3.85;0.90;;;10.90;99.90;;;;;;5027421;28;20563;-56
2023/01/12 11:44:52;;;;;;;4.00;1.10;;;10.90;99.90;;;;;;5024574;28;20100;-56
2023/01/12 11:47:33;;;;;;;5.40;1.30;;;10.90;99.90;;;;;;5023085;28;20032;-57
2023/01/12 11:50:24;;;;;;;4.25;1.10;;;10.90;99.90;;;;;;5020496;28;20175;-56
2023/01/12 11:52:51;;;;;;;3.28;0.90;;;10.90;99.90;;;;;;5007626;28;20128;-57
2023/01/12 11:55:38;;;;;;;4.80;1.30;;;10.90;99.90;;;;;;5030816;28;20516;-57
2023/01/12 11:58:31;;;;;;;5.63;1.50;;;10.90;99.90;;;;;;5025952;28;20040;-57
2023/01/12 12:01:10;;;;;;;6.82;1.17;;;10.90;99.90;;;;;;5017884;28;20038;-56
2023/01/12 12:03:53;;;;;;;5.57;1.15;;;10.90;99.90;;;;;;5008678;28;20117;-57
2023/01/12 12:06:45;;;;;;;6.10;1.30;;;10.90;99.90;;;;;;5003629;28;20639;-57
2023/01/12 12:09:24;;;;;;;5.40;1.40;;;10.80;99.90;;;;;;5003296;28;20061;-56
2023/01/12 12:11:58;;;;;;;6.40;1.15;;;10.90;99.90;;;;;;5017774;28;20038;-58
2023/01/12 12:14:46;;;;;;;7.28;1.23;;;10.90;99.90;;;;;;4989896;28;20057;-57
2023/01/12 12:17:37;;;;;;;4.43;1.30;;;10.90;99.90;;;;;;5010640;28;20041;-57
2023/01/12 12:20:41;;;;;;;9.77;1.50;;;10.90;99.90;;;;;;5017452;28;20373;-57
2023/01/12 12:23:17;;;;;;;;;;;10.90;99.90;;;;;;5005562;28;20080;-56
2023/01/12 12:26:07;;;;;;;4.45;1.00;;;10.80;99.90;;;;;;5012842;28;19913;-56
2023/01/12 12:28:47;;;;;;;4.45;1.40;;;10.90;99.90;;;;;;5022339;28;20484;-57
2023/01/12 12:31:21;;;;;;;5.13;1.00;;;10.90;99.90;;;;;;5022722;28;20037;-57
2023/01/12 12:34:01;;;;;;;5.30;1.20;;;10.90;99.90;;;;;;5022383;28;20404;-57
2023/01/12 12:36:47;;;;;;;5.00;1.30;;;10.90;99.90;;;;;;5024195;28;20044;-57
2023/01/12 12:39:34;;;;;;;5.47;1.10;;;11.00;99.90;;;;;;5021224;28;20068;-56
2023/01/12 12:45:26;;;;;;;4.30;1.20;;;11.00;99.90;;;;;;5023826;28;20503;-57
2023/01/12 12:47:58;;;;;;;6.22;1.10;;;11.10;99.90;;;;;;5017860;28;20117;-56
2023/01/12 12:50:27;;;;;;;3.80;1.08;;;11.10;99.90;;;;;;5022117;28;20061;-56
2023/01/12 12:53:06;;;;;;;2.50;0.90;;;11.10;99.90;;;;;;5023967;28;20471;-57
2023/01/12 12:55:31;;;;;;;4.88;1.17;;;11.10;99.90;;;;;;5023973;28;20373;-57
2023/01/12 12:58:09;;;;;;;3.92;0.95;;;11.10;99.90;;;;;;5005163;28;20029;-56
2023/01/12 13:00:45;;;;;;;4.88;1.15;;;11.20;99.90;;;;;;5006949;28;20388;-57
2023/01/12 13:03:39;;;;;;;3.15;1.10;;;11.10;99.90;;;;;;5023841;28;20036;-57
2023/01/12 13:06:36;;;;;;;4.28;0.95;;;11.00;99.90;;;;;;5022683;28;20056;-56
2023/01/12 13:09:10;;;;;;;3.75;0.90;;;11.00;99.90;;;;;;5021816;28;20591;-57
2023/01/12 13:11:59;;;;;;;3.65;1.10;;;11.00;99.90;;;;;;5022075;28;20030;-57
2023/01/12 13:14:31;;;;;;;5.15;1.02;;;11.00;99.90;;;;;;5021954;28;20041;-56
2023/01/12 13:17:01;;;;;;;3.90;0.98;;;11.00;99.90;;;;;;5023511;28;20041;-55
2023/01/12 13:19:37;;;;;;;2.33;0.73;;;11.10;99.90;;;;;;5009412;28;20477;-56
2023/01/12 13:22:41;;;;;;;3.03;0.90;;;11.10;99.90;;;;;;5019689;28;20168;-56
2023/01/12 13:25:09;;;;;;;;;;;11.10;99.90;;;;;;5023204;28;20040;-56
2023/01/12 13:28:00;;;;;;;3.80;0.90;;;11.00;99.90;;;;;;5022718;28;20398;-56
2023/01/12 13:30:25;;;;;;;5.35;1.10;;;11.00;99.90;;;;;;5020957;28;20203;-56
2023/01/12 13:33:13;;;;;;;3.20;0.90;;;11.00;99.90;;;;;;5019537;28;20207;-56
2023/01/12 13:35:39;;;;;;;3.35;1.08;;;11.10;99.90;;;;;;5022914;28;20658;-55
2023/01/12 13:38:20;;;;;;;5.28;1.05;;;11.10;99.90;;;;;;5022717;28;20036;-56
2023/01/12 13:40:46;;;;;;;4.15;1.05;;;11.00;99.90;;;;;;5023023;28;20032;-56
2023/01/12 13:43:24;;;;;;;4.72;1.13;;;11.00;99.90;;;;;;5021657;28;20030;-57
2023/01/12 13:46:04;;;;;;;4.13;1.10;;;11.00;99.90;;;;;;5023424;28;20049;-56
2023/01/12 13:48:34;;;;;;;2.75;1.02;;;10.90;99.90;;;;;;5013063;28;20177;-57
2023/01/12 13:51:13;;;;;;;3.80;1.20;;;10.90;99.90;;;;;;5014530;28;20133;-57
2023/01/12 13:53:38;;;;;;;2.15;1.08;;;11.00;99.90;;;;;;5018820;28;20585;-56
2023/01/12 13:56:06;;;;;;;5.85;1.45;;;10.90;99.90;;;;;;5025923;28;20125;-56